createdAt,value
2022-08-25T00:03:50.273Z,20.57
2022-08-25T00:08:59.685Z,16.23
2022-08-25T00:14:11.576Z,17.63
2022-08-25T00:19:21.597Z,18.63
2022-08-25T00:24:27.738Z,17.03
2022-08-25T00:29:38.182Z,19.13
2022-08-25T00:34:43.177Z,16.57
2022-08-25T00:39:48.361Z,16.20
2022-08-25T00:44:56.434Z,19.50
2022-08-25T00:50:04.273Z,18.20
2022-08-25T00:55:14.652Z,17.97
2022-08-25T01:00:30.411Z,16.43
2022-08-25T01:05:35.950Z,20.60
2022-08-25T01:10:44.320Z,13.70
2022-08-25T01:15:55.942Z,15.47
2022-08-25T01:21:03.552Z,22.13
2022-08-25T01:26:12.743Z,18.20
2022-08-25T01:31:24.053Z,18.53
2022-08-25T01:36:33.323Z,15.27
2022-08-25T01:41:52.012Z,20.50
2022-08-25T01:46:57.458Z,20.40
2022-08-25T01:52:10.563Z,19.77
2022-08-25T01:57:15.829Z,17.13
2022-08-25T02:02:20.738Z,18.60
2022-08-25T02:07:28.338Z,16.53
2022-08-25T02:12:33.415Z,15.03
2022-08-25T02:17:40.418Z,15.83
2022-08-25T02:22:53.110Z,17.10
2022-08-25T02:28:02.663Z,14.83
2022-08-25T02:33:07.544Z,16.33
2022-08-25T02:38:14.984Z,16.13
2022-08-25T02:43:19.873Z,18.03
2022-08-25T02:48:24.963Z,17.80
2022-08-25T02:53:33.177Z,20.27
2022-08-25T02:58:39.360Z,22.73
2022-08-25T03:03:47.115Z,21.53
2022-08-25T03:08:55.631Z,19.07
2022-08-25T03:14:00.723Z,21.07
2022-08-25T03:19:06.002Z,19.83
2022-08-25T03:24:13.656Z,18.87
2022-08-25T03:29:19.062Z,20.07
2022-08-25T03:34:25.754Z,19.93
2022-08-25T03:39:33.716Z,20.10
2022-08-25T03:44:38.698Z,18.50
2022-08-25T03:49:43.878Z,17.90
2022-08-25T03:54:51.601Z,19.13
2022-08-25T03:59:56.702Z,19.47
2022-08-25T04:05:01.761Z,19.17
2022-08-25T04:10:11.234Z,21.13
2022-08-25T04:15:16.224Z,18.77
2022-08-25T04:20:21.527Z,22.53
2022-08-25T04:25:31.500Z,18.07
2022-08-25T04:30:36.355Z,18.83
2022-08-25T04:35:43.830Z,17.97
2022-08-25T04:40:58.810Z,18.37
2022-08-25T04:46:12.565Z,22.67
2022-08-25T04:51:20.392Z,19.77
2022-08-25T04:56:28.261Z,17.73
2022-08-25T05:01:33.604Z,19.80
2022-08-25T05:06:40.971Z,18.67
2022-08-25T05:11:48.635Z,19.50
2022-08-25T05:16:53.559Z,19.37
2022-08-25T05:21:58.558Z,22.63
2022-08-25T05:27:10.886Z,17.67
2022-08-25T05:32:15.906Z,16.90
2022-08-25T05:37:23.008Z,20.53
2022-08-25T05:42:31.092Z,17.03
2022-08-25T05:47:36.918Z,14.93
2022-08-25T05:52:43.442Z,19.70
2022-08-25T05:57:50.990Z,17.70
2022-08-25T06:02:56.395Z,22.17
2022-08-25T06:08:01.741Z,20.30
2022-08-25T06:13:29.030Z,21.07
2022-08-25T06:18:37.686Z,17.83
2022-08-25T06:23:43.275Z,18.08
2022-08-25T06:28:50.917Z,21.17
2022-08-25T06:33:56.472Z,17.45
2022-08-25T06:39:01.566Z,17.65
2022-08-25T06:44:11.571Z,17.37
2022-08-25T06:49:16.921Z,22.25
2022-08-25T06:54:21.907Z,20.10
2022-08-25T06:59:32.158Z,22.08
2022-08-25T07:04:38.787Z,22.23
2022-08-25T07:09:43.956Z,17.20
2022-08-25T07:15:10.199Z,17.83
2022-08-25T07:20:16.927Z,19.08
2022-08-25T07:25:24.367Z,20.23
2022-08-25T07:30:32.069Z,18.30
2022-08-25T07:35:38.002Z,21.10
2022-08-25T07:40:43.276Z,15.07
2022-08-25T07:45:53.408Z,17.85
2022-08-25T07:50:58.351Z,19.17
2022-08-25T08:01:15.928Z,17.95
2022-08-25T08:06:23.552Z,12.65
2022-08-25T08:11:31.839Z,19.08
2022-08-25T08:16:39.796Z,17.05
2022-08-25T08:21:46.798Z,14.52
2022-08-25T08:26:58.696Z,15.00
2022-08-25T08:32:09.124Z,15.85
2022-08-25T08:37:14.001Z,21.27
2022-08-25T08:42:35.659Z,15.30
2022-08-25T08:47:53.164Z,17.67
2022-08-25T08:53:04.158Z,14.07
2022-08-25T08:58:14.924Z,15.27
2022-08-25T09:03:32.498Z,18.13
2022-08-25T09:08:38.349Z,11.02
2022-08-25T09:14:07.181Z,19.60
2022-08-25T09:19:28.955Z,14.43
2022-08-25T09:24:52.704Z,14.50
2022-08-25T09:30:07.484Z,20.17
2022-08-25T09:35:22.614Z,22.25
2022-08-25T09:40:27.843Z,20.63
2022-08-25T09:45:43.622Z,19.92
2022-08-25T09:50:51.910Z,19.52
2022-08-25T09:56:04.865Z,21.05
2022-08-25T10:01:17.490Z,20.55
2022-08-25T10:06:27.306Z,23.05
2022-08-25T10:11:49.077Z,20.75
2022-08-25T10:16:55.361Z,25.90
2022-08-25T10:22:10.909Z,23.88
2022-08-25T10:27:28.739Z,22.95
2022-08-25T10:32:47.505Z,25.38
2022-08-25T10:38:11.725Z,19.70
2022-08-25T10:43:33.869Z,24.85
2022-08-25T10:48:53.774Z,24.65
2022-08-25T10:54:10.016Z,27.80
2022-08-25T10:59:36.199Z,22.45
2022-08-25T11:04:47.154Z,26.25
2022-08-25T11:10:00.686Z,24.00
2022-08-25T11:15:12.158Z,32.17
2022-08-25T11:20:26.819Z,28.63
2022-08-25T11:25:38.445Z,27.77
2022-08-25T11:30:44.708Z,22.80
2022-08-25T11:35:55.535Z,28.63
2022-08-25T11:41:13.103Z,22.90
2022-08-25T12:20:02.076Z,31.13
2022-08-25T12:25:11.775Z,22.33
2022-08-25T12:30:23.905Z,23.25
2022-08-25T12:35:35.920Z,30.02
2022-08-25T12:40:56.463Z,31.17
2022-08-25T12:46:31.972Z,23.00
2022-08-25T12:51:59.263Z,25.83
2022-08-25T12:57:09.554Z,26.42
2022-08-25T13:02:56.647Z,26.95
2022-08-25T13:08:26.917Z,30.90
2022-08-25T13:13:48.198Z,30.20
2022-08-25T13:18:53.627Z,24.02
2022-08-25T13:24:05.751Z,22.45
2022-08-25T13:29:18.408Z,27.65
2022-08-25T13:34:34.251Z,26.25
2022-08-25T13:39:56.542Z,20.02
2022-08-25T13:45:03.478Z,21.00
2022-08-25T13:50:35.457Z,25.60
2022-08-25T13:55:53.269Z,21.98
2022-08-25T14:01:22.787Z,27.88
2022-08-25T14:06:37.433Z,27.48
2022-08-25T14:11:50.224Z,24.92
2022-08-25T14:17:16.448Z,28.45
2022-08-25T14:22:27.228Z,24.45
2022-08-25T14:27:38.962Z,28.10
2022-08-25T14:32:56.346Z,24.45
2022-08-25T14:38:01.589Z,25.67
2022-08-25T14:43:10.851Z,33.00
2022-08-25T14:48:24.345Z,25.85
2022-08-25T14:53:30.007Z,26.15
2022-08-25T14:58:48.527Z,32.25
2022-08-25T15:04:04.147Z,23.67
2022-08-25T15:09:12.167Z,20.02
2022-08-25T15:14:28.881Z,26.48
2022-08-25T15:19:38.870Z,17.52
2022-08-25T15:24:43.844Z,20.45
2022-08-25T15:29:51.930Z,31.27
2022-08-25T15:34:57.770Z,19.75
2022-08-25T15:40:02.730Z,20.60
2022-08-25T15:45:15.234Z,31.63
2022-08-25T15:50:25.999Z,25.27
2022-08-25T15:55:33.233Z,25.33
2022-08-25T16:00:43.702Z,25.08
2022-08-25T16:05:57.170Z,22.02
2022-08-25T16:11:02.710Z,27.02
2022-08-25T16:16:10.516Z,25.30
2022-08-25T16:21:17.331Z,22.02
2022-08-25T16:26:22.264Z,28.05
2022-08-25T16:31:32.617Z,26.98
2022-08-25T16:36:38.156Z,35.67
2022-08-25T16:41:43.424Z,34.00
2022-08-25T16:46:54.313Z,31.88
2022-08-25T16:51:59.540Z,28.13
2022-08-25T16:57:05.912Z,32.00
2022-08-25T17:02:13.521Z,25.55
2022-08-25T17:07:23.696Z,26.40
2022-08-25T17:12:29.943Z,24.40
2022-08-25T17:17:37.517Z,27.08
2022-08-25T17:22:43.391Z,34.70
2022-08-25T17:27:48.470Z,23.25
2022-08-25T17:32:56.334Z,41.35
2022-08-25T17:38:01.325Z,30.30
2022-08-25T17:43:09.135Z,36.88
2022-08-25T17:48:18.128Z,26.10
2022-08-25T17:53:24.583Z,26.15
2022-08-25T17:58:30.650Z,21.60
2022-08-25T18:03:38.259Z,31.15
2022-08-25T18:08:43.627Z,21.30
2022-08-25T18:13:50.563Z,23.17
2022-08-25T18:18:58.984Z,39.72
2022-08-25T18:24:03.899Z,28.45
2022-08-25T18:29:12.177Z,32.35
2022-08-25T18:34:20.241Z,29.45
2022-08-25T18:39:37.624Z,37.33
2022-08-25T18:44:46.793Z,34.30
2022-08-25T18:49:54.911Z,24.20
2022-08-25T18:55:00.388Z,21.40
2022-08-25T19:00:08.844Z,28.77
2022-08-25T19:05:17.531Z,27.25
2022-08-25T19:10:24.087Z,23.50
2022-08-25T19:15:30.605Z,31.45
2022-08-25T19:20:41.356Z,28.90
2022-08-25T19:25:47.350Z,29.30
2022-08-25T19:30:52.560Z,25.25
2022-08-25T19:36:00.903Z,28.67
2022-08-25T19:41:10.710Z,33.22
2022-08-25T19:46:20.121Z,30.10
2022-08-25T19:51:27.780Z,27.48
2022-08-25T19:56:36.254Z,21.50
2022-08-25T20:01:42.992Z,34.05
2022-08-25T20:06:50.648Z,27.60
2022-08-25T20:11:56.439Z,33.83
2022-08-25T20:17:03.406Z,32.15
2022-08-25T20:22:24.960Z,35.13
2022-08-25T20:27:35.837Z,34.35
2022-08-25T20:32:42.555Z,32.80
2022-08-25T20:37:54.049Z,32.80
2022-08-25T20:43:03.132Z,33.13
2022-08-25T20:48:09.050Z,37.20
2022-08-25T20:53:18.511Z,33.17
2022-08-25T20:58:23.468Z,31.77
2022-08-25T21:03:31.808Z,30.67
2022-08-25T21:08:46.587Z,35.67
2022-08-25T21:13:51.977Z,33.73
2022-08-25T21:18:57.118Z,25.47
2022-08-25T21:24:09.690Z,29.50
2022-08-25T21:29:15.065Z,34.00
2022-08-25T21:34:21.496Z,30.13
2022-08-25T21:39:32.468Z,38.23
2022-08-25T21:44:37.365Z,36.97
2022-08-25T21:49:42.561Z,31.87
2022-08-25T21:54:50.111Z,31.87
2022-08-25T21:59:55.023Z,29.80
2022-08-25T22:05:00.167Z,29.67
2022-08-25T22:10:16.412Z,32.27
2022-08-25T22:15:23.427Z,31.07
2022-08-25T22:20:28.834Z,33.70
2022-08-25T22:25:36.327Z,26.40
2022-08-25T22:30:42.933Z,28.20
2022-08-25T22:35:48.063Z,28.00
2022-08-25T22:40:55.885Z,31.43
2022-08-25T22:46:05.219Z,37.73
2022-08-25T22:51:13.978Z,32.93
2022-08-25T22:56:29.887Z,36.10
2022-08-25T23:01:37.701Z,36.03
2022-08-25T23:06:44.731Z,30.20
2022-08-25T23:11:52.444Z,34.80
2022-08-25T23:16:58.553Z,32.47
2022-08-25T23:22:16.323Z,34.43
2022-08-25T23:27:24.571Z,41.60
2022-08-25T23:32:29.678Z,41.00
2022-08-25T23:37:35.343Z,39.07
2022-08-25T23:42:43.059Z,36.00
2022-08-25T23:47:52.594Z,33.27
2022-08-25T23:52:57.625Z,35.17
2022-08-25T23:58:06.164Z,43.47
